sensor_id;sensor_type;location;lat;lon;timestamp;P1;durP1;ratioP1;P2;durP2;ratioP2
11394;SDS011;5753;54.402;10.220;2022-11-15T00:00:53;55.40;;;28.80;;
11394;SDS011;5753;54.402;10.220;2022-11-15T00:03:22;54.60;;;26.77;;
11394;SDS011;5753;54.402;10.220;2022-11-15T00:05:50;66.05;;;26.95;;
11394;SDS011;5753;54.402;10.220;2022-11-15T00:08:16;59.60;;;31.27;;
11394;SDS011;5753;54.402;10.220;2022-11-15T00:10:43;49.42;;;31.55;;
11394;SDS011;5753;54.402;10.220;2022-11-15T00:13:26;52.63;;;31.73;;
11394;SDS011;5753;54.402;10.220;2022-11-15T00:15:53;56.88;;;28.30;;
11394;SDS011;5753;54.402;10.220;2022-11-15T00:18:23;51.42;;;29.48;;
11394;SDS011;5753;54.402;10.220;2022-11-15T00:20:49;59.15;;;31.20;;
11394;SDS011;5753;54.402;10.220;2022-11-15T00:23:16;48.88;;;29.45;;
11394;SDS011;5753;54.402;10.220;2022-11-15T00:25:42;63.67;;;30.83;;
11394;SDS011;5753;54.402;10.220;2022-11-15T00:28:08;48.42;;;25.65;;
11394;SDS011;5753;54.402;10.220;2022-11-15T00:30:34;48.40;;;27.00;;
11394;SDS011;5753;54.402;10.220;2022-11-15T00:33:03;55.05;;;28.17;;
11394;SDS011;5753;54.402;10.220;2022-11-15T00:35:31;51.10;;;29.58;;
11394;SDS011;5753;54.402;10.220;2022-11-15T00:37:58;53.22;;;33.28;;
11394;SDS011;5753;54.402;10.220;2022-11-15T00:40:25;61.15;;;29.52;;
11394;SDS011;5753;54.402;10.220;2022-11-15T00:42:51;57.88;;;27.33;;
11394;SDS011;5753;54.402;10.220;2022-11-15T00:45:17;54.05;;;26.15;;
11394;SDS011;5753;54.402;10.220;2022-11-15T00:47:44;44.80;;;24.50;;
11394;SDS011;5753;54.402;10.220;2022-11-15T00:50:11;53.60;;;28.48;;
11394;SDS011;5753;54.402;10.220;2022-11-15T00:52:38;50.00;;;24.02;;
11394;SDS011;5753;54.402;10.220;2022-11-15T00:55:04;47.40;;;23.83;;
11394;SDS011;5753;54.402;10.220;2022-11-15T00:57:30;39.50;;;24.33;;
11394;SDS011;5753;54.402;10.220;2022-11-15T00:59:56;44.88;;;26.13;;
11394;SDS011;5753;54.402;10.220;2022-11-15T01:02:22;41.35;;;26.25;;
11394;SDS011;5753;54.402;10.220;2022-11-15T01:04:48;56.30;;;28.30;;
11394;SDS011;5753;54.402;10.220;2022-11-15T01:07:15;46.63;;;25.23;;
11394;SDS011;5753;54.402;10.220;2022-11-15T01:09:41;39.78;;;25.70;;
11394;SDS011;5753;54.402;10.220;2022-11-15T01:12:07;43.30;;;25.67;;
11394;SDS011;5753;54.402;10.220;2022-11-15T01:14:33;51.05;;;29.13;;
11394;SDS011;5753;54.402;10.220;2022-11-15T01:16:59;50.13;;;27.00;;
11394;SDS011;5753;54.402;10.220;2022-11-15T01:19:25;45.63;;;25.58;;
11394;SDS011;5753;54.402;10.220;2022-11-15T01:21:51;47.25;;;26.27;;
11394;SDS011;5753;54.402;10.220;2022-11-15T01:24:17;51.85;;;29.13;;
11394;SDS011;5753;54.402;10.220;2022-11-15T01:26:43;43.28;;;28.42;;
11394;SDS011;5753;54.402;10.220;2022-11-15T01:29:09;54.33;;;23.60;;
11394;SDS011;5753;54.402;10.220;2022-11-15T01:31:35;40.60;;;23.05;;
11394;SDS011;5753;54.402;10.220;2022-11-15T01:34:02;45.33;;;28.02;;
11394;SDS011;5753;54.402;10.220;2022-11-15T01:36:28;54.15;;;26.15;;
11394;SDS011;5753;54.402;10.220;2022-11-15T01:38:54;39.60;;;20.52;;
11394;SDS011;5753;54.402;10.220;2022-11-15T01:41:29;49.20;;;26.95;;
11394;SDS011;5753;54.402;10.220;2022-11-15T01:44:25;46.75;;;22.52;;
11394;SDS011;5753;54.402;10.220;2022-11-15T01:46:55;49.45;;;29.08;;
11394;SDS011;5753;54.402;10.220;2022-11-15T01:49:22;42.22;;;24.50;;
11394;SDS011;5753;54.402;10.220;2022-11-15T01:51:50;48.35;;;24.58;;
11394;SDS011;5753;54.402;10.220;2022-11-15T01:54:19;42.83;;;25.60;;
11394;SDS011;5753;54.402;10.220;2022-11-15T01:56:48;51.90;;;25.27;;
11394;SDS011;5753;54.402;10.220;2022-11-15T01:59:18;39.00;;;24.08;;
11394;SDS011;5753;54.402;10.220;2022-11-15T02:01:45;46.83;;;28.75;;
11394;SDS011;5753;54.402;10.220;2022-11-15T02:06:41;63.88;;;30.42;;
11394;SDS011;5753;54.402;10.220;2022-11-15T02:09:08;42.47;;;24.17;;
11394;SDS011;5753;54.402;10.220;2022-11-15T02:11:35;52.45;;;24.83;;
11394;SDS011;5753;54.402;10.220;2022-11-15T02:14:02;45.63;;;25.65;;
11394;SDS011;5753;54.402;10.220;2022-11-15T02:19:34;68.07;;;28.83;;
11394;SDS011;5753;54.402;10.220;2022-11-15T02:30:33;51.53;;;26.50;;
11394;SDS011;5753;54.402;10.220;2022-11-15T02:36:01;54.47;;;27.70;;
11394;SDS011;5753;54.402;10.220;2022-11-15T02:38:53;56.40;;;32.13;;
11394;SDS011;5753;54.402;10.220;2022-11-15T02:46:53;44.58;;;26.25;;
11394;SDS011;5753;54.402;10.220;2022-11-15T02:50:17;53.25;;;30.08;;
11394;SDS011;5753;54.402;10.220;2022-11-15T02:52:34;43.40;;;27.05;;
11394;SDS011;5753;54.402;10.220;2022-11-15T02:55:01;36.75;;;26.10;;
11394;SDS011;5753;54.402;10.220;2022-11-15T03:00:12;47.67;;;25.08;;
11394;SDS011;5753;54.402;10.220;2022-11-15T03:02:46;45.97;;;27.58;;
11394;SDS011;5753;54.402;10.220;2022-11-15T03:11:09;45.92;;;28.83;;
11394;SDS011;5753;54.402;10.220;2022-11-15T03:13:58;47.03;;;24.73;;
11394;SDS011;5753;54.402;10.220;2022-11-15T03:16:38;49.42;;;25.42;;
11394;SDS011;5753;54.402;10.220;2022-11-15T03:19:33;46.95;;;27.42;;
11394;SDS011;5753;54.402;10.220;2022-11-15T03:22:08;43.78;;;29.92;;
11394;SDS011;5753;54.402;10.220;2022-11-15T03:24:38;56.53;;;24.90;;
11394;SDS011;5753;54.402;10.220;2022-11-15T03:27:06;61.15;;;29.70;;
11394;SDS011;5753;54.402;10.220;2022-11-15T03:29:36;51.65;;;27.52;;
11394;SDS011;5753;54.402;10.220;2022-11-15T03:32:09;53.97;;;30.35;;
11394;SDS011;5753;54.402;10.220;2022-11-15T03:34:47;39.08;;;25.83;;
11394;SDS011;5753;54.402;10.220;2022-11-15T03:37:18;40.78;;;26.35;;
11394;SDS011;5753;54.402;10.220;2022-11-15T03:39:49;47.17;;;29.13;;
11394;SDS011;5753;54.402;10.220;2022-11-15T03:47:18;38.28;;;25.92;;
11394;SDS011;5753;54.402;10.220;2022-11-15T03:49:50;43.63;;;27.05;;
11394;SDS011;5753;54.402;10.220;2022-11-15T03:52:21;46.83;;;23.73;;
11394;SDS011;5753;54.402;10.220;2022-11-15T03:54:49;48.45;;;26.27;;
11394;SDS011;5753;54.402;10.220;2022-11-15T03:57:17;37.45;;;25.02;;
11394;SDS011;5753;54.402;10.220;2022-11-15T03:59:43;41.25;;;24.73;;
11394;SDS011;5753;54.402;10.220;2022-11-15T04:02:09;39.78;;;26.55;;
11394;SDS011;5753;54.402;10.220;2022-11-15T04:04:35;42.88;;;25.05;;
11394;SDS011;5753;54.402;10.220;2022-11-15T04:07:01;44.13;;;24.42;;
11394;SDS011;5753;54.402;10.220;2022-11-15T04:09:28;43.60;;;24.63;;
11394;SDS011;5753;54.402;10.220;2022-11-15T04:11:54;40.58;;;22.80;;
11394;SDS011;5753;54.402;10.220;2022-11-15T04:14:20;44.95;;;23.92;;
11394;SDS011;5753;54.402;10.220;2022-11-15T04:16:46;56.03;;;28.45;;
11394;SDS011;5753;54.402;10.220;2022-11-15T04:19:12;47.33;;;27.15;;
11394;SDS011;5753;54.402;10.220;2022-11-15T04:21:57;46.70;;;25.33;;
11394;SDS011;5753;54.402;10.220;2022-11-15T04:24:41;35.20;;;24.38;;
11394;SDS011;5753;54.402;10.220;2022-11-15T04:27:07;45.78;;;26.92;;
11394;SDS011;5753;54.402;10.220;2022-11-15T04:29:33;51.95;;;29.52;;
11394;SDS011;5753;54.402;10.220;2022-11-15T04:32:00;41.60;;;23.60;;
11394;SDS011;5753;54.402;10.220;2022-11-15T04:34:31;39.28;;;25.60;;
11394;SDS011;5753;54.402;10.220;2022-11-15T04:36:57;44.15;;;26.90;;
11394;SDS011;5753;54.402;10.220;2022-11-15T04:39:41;50.05;;;26.35;;
11394;SDS011;5753;54.402;10.220;2022-11-15T04:42:08;50.05;;;24.10;;
11394;SDS011;5753;54.402;10.220;2022-11-15T04:44:34;44.40;;;21.30;;
11394;SDS011;5753;54.402;10.220;2022-11-15T04:47:01;41.45;;;27.90;;
11394;SDS011;5753;54.402;10.220;2022-11-15T04:49:27;45.22;;;22.17;;
11394;SDS011;5753;54.402;10.220;2022-11-15T04:51:53;42.35;;;26.15;;
11394;SDS011;5753;54.402;10.220;2022-11-15T04:54:19;47.13;;;25.83;;
11394;SDS011;5753;54.402;10.220;2022-11-15T04:56:45;47.15;;;26.67;;
11394;SDS011;5753;54.402;10.220;2022-11-15T04:59:11;40.28;;;21.48;;
11394;SDS011;5753;54.402;10.220;2022-11-15T05:01:37;49.17;;;24.40;;
11394;SDS011;5753;54.402;10.220;2022-11-15T05:04:03;34.65;;;22.42;;
11394;SDS011;5753;54.402;10.220;2022-11-15T05:06:45;46.92;;;28.63;;
11394;SDS011;5753;54.402;10.220;2022-11-15T05:09:16;45.05;;;25.58;;
11394;SDS011;5753;54.402;10.220;2022-11-15T05:11:43;36.72;;;23.63;;
11394;SDS011;5753;54.402;10.220;2022-11-15T05:14:10;41.63;;;25.17;;
11394;SDS011;5753;54.402;10.220;2022-11-15T05:16:36;46.47;;;26.83;;
11394;SDS011;5753;54.402;10.220;2022-11-15T05:19:02;45.58;;;23.27;;
11394;SDS011;5753;54.402;10.220;2022-11-15T05:21:28;43.00;;;21.35;;
11394;SDS011;5753;54.402;10.220;2022-11-15T05:23:55;44.95;;;25.23;;
11394;SDS011;5753;54.402;10.220;2022-11-15T05:26:21;38.65;;;25.85;;
11394;SDS011;5753;54.402;10.220;2022-11-15T05:28:51;39.35;;;21.80;;
11394;SDS011;5753;54.402;10.220;2022-11-15T05:31:21;33.78;;;21.65;;
11394;SDS011;5753;54.402;10.220;2022-11-15T05:33:49;31.55;;;24.58;;
11394;SDS011;5753;54.402;10.220;2022-11-15T05:36:27;43.72;;;25.95;;
11394;SDS011;5753;54.402;10.220;2022-11-15T05:39:02;42.17;;;22.83;;
11394;SDS011;5753;54.402;10.220;2022-11-15T05:41:34;42.42;;;27.83;;
11394;SDS011;5753;54.402;10.220;2022-11-15T05:44:07;44.15;;;27.92;;
11394;SDS011;5753;54.402;10.220;2022-11-15T05:46:36;44.10;;;26.08;;
11394;SDS011;5753;54.402;10.220;2022-11-15T05:49:06;40.42;;;26.45;;
11394;SDS011;5753;54.402;10.220;2022-11-15T05:51:35;40.47;;;23.80;;
11394;SDS011;5753;54.402;10.220;2022-11-15T05:54:01;48.47;;;27.48;;
11394;SDS011;5753;54.402;10.220;2022-11-15T05:56:28;40.85;;;25.75;;
11394;SDS011;5753;54.402;10.220;2022-11-15T05:58:55;38.33;;;22.52;;
11394;SDS011;5753;54.402;10.220;2022-11-15T06:01:22;40.38;;;21.70;;
11394;SDS011;5753;54.402;10.220;2022-11-15T06:03:51;41.92;;;24.60;;
11394;SDS011;5753;54.402;10.220;2022-11-15T06:06:17;36.10;;;23.50;;
11394;SDS011;5753;54.402;10.220;2022-11-15T06:08:43;37.67;;;20.67;;
11394;SDS011;5753;54.402;10.220;2022-11-15T06:11:09;37.28;;;21.17;;
11394;SDS011;5753;54.402;10.220;2022-11-15T06:13:35;40.72;;;22.55;;
11394;SDS011;5753;54.402;10.220;2022-11-15T06:16:01;39.78;;;25.98;;
11394;SDS011;5753;54.402;10.220;2022-11-15T06:18:28;47.83;;;26.80;;
11394;SDS011;5753;54.402;10.220;2022-11-15T06:20:58;43.55;;;23.92;;
11394;SDS011;5753;54.402;10.220;2022-11-15T06:23:25;46.35;;;24.20;;
11394;SDS011;5753;54.402;10.220;2022-11-15T06:25:51;46.60;;;27.42;;
11394;SDS011;5753;54.402;10.220;2022-11-15T06:28:17;44.75;;;25.98;;
11394;SDS011;5753;54.402;10.220;2022-11-15T06:30:43;42.97;;;27.73;;
11394;SDS011;5753;54.402;10.220;2022-11-15T06:33:09;44.88;;;24.38;;
11394;SDS011;5753;54.402;10.220;2022-11-15T06:35:36;32.35;;;20.95;;
11394;SDS011;5753;54.402;10.220;2022-11-15T06:38:06;32.28;;;21.88;;
11394;SDS011;5753;54.402;10.220;2022-11-15T06:40:34;46.42;;;23.20;;
11394;SDS011;5753;54.402;10.220;2022-11-15T06:43:02;42.50;;;23.10;;
11394;SDS011;5753;54.402;10.220;2022-11-15T06:45:29;36.38;;;24.80;;
11394;SDS011;5753;54.402;10.220;2022-11-15T06:47:56;40.67;;;23.75;;
11394;SDS011;5753;54.402;10.220;2022-11-15T06:50:22;32.78;;;22.13;;
11394;SDS011;5753;54.402;10.220;2022-11-15T06:52:48;38.20;;;23.08;;
11394;SDS011;5753;54.402;10.220;2022-11-15T06:55:14;42.05;;;24.45;;
11394;SDS011;5753;54.402;10.220;2022-11-15T06:57:50;41.20;;;23.98;;
11394;SDS011;5753;54.402;10.220;2022-11-15T07:00:17;43.30;;;24.98;;
11394;SDS011;5753;54.402;10.220;2022-11-15T07:02:45;38.83;;;25.98;;
11394;SDS011;5753;54.402;10.220;2022-11-15T07:05:12;40.33;;;23.15;;
11394;SDS011;5753;54.402;10.220;2022-11-15T07:07:39;43.05;;;29.85;;
11394;SDS011;5753;54.402;10.220;2022-11-15T07:10:06;38.47;;;25.58;;
11394;SDS011;5753;54.402;10.220;2022-11-15T07:12:33;33.97;;;25.90;;
11394;SDS011;5753;54.402;10.220;2022-11-15T07:14:59;37.55;;;22.95;;
11394;SDS011;5753;54.402;10.220;2022-11-15T07:17:25;39.60;;;24.40;;
11394;SDS011;5753;54.402;10.220;2022-11-15T07:19:51;41.63;;;24.10;;
11394;SDS011;5753;54.402;10.220;2022-11-15T07:22:17;35.03;;;21.98;;
11394;SDS011;5753;54.402;10.220;2022-11-15T07:24:43;34.70;;;21.98;;
11394;SDS011;5753;54.402;10.220;2022-11-15T07:27:10;35.35;;;22.02;;
11394;SDS011;5753;54.402;10.220;2022-11-15T07:29:36;38.50;;;24.73;;
11394;SDS011;5753;54.402;10.220;2022-11-15T07:32:02;35.58;;;26.73;;
11394;SDS011;5753;54.402;10.220;2022-11-15T07:34:28;36.97;;;23.17;;
11394;SDS011;5753;54.402;10.220;2022-11-15T07:36:54;40.85;;;24.70;;
11394;SDS011;5753;54.402;10.220;2022-11-15T07:39:20;30.77;;;23.15;;
11394;SDS011;5753;54.402;10.220;2022-11-15T07:41:46;32.35;;;21.70;;
11394;SDS011;5753;54.402;10.220;2022-11-15T07:44:14;32.97;;;21.55;;
11394;SDS011;5753;54.402;10.220;2022-11-15T07:46:40;33.90;;;20.95;;
11394;SDS011;5753;54.402;10.220;2022-11-15T07:49:06;37.85;;;22.55;;
11394;SDS011;5753;54.402;10.220;2022-11-15T07:51:32;34.13;;;23.73;;
11394;SDS011;5753;54.402;10.220;2022-11-15T07:53:58;39.83;;;23.13;;
11394;SDS011;5753;54.402;10.220;2022-11-15T07:56:25;28.95;;;22.60;;
11394;SDS011;5753;54.402;10.220;2022-11-15T07:58:51;34.65;;;20.15;;
11394;SDS011;5753;54.402;10.220;2022-11-15T08:01:17;33.45;;;21.80;;
11394;SDS011;5753;54.402;10.220;2022-11-15T08:03:43;37.63;;;25.30;;
11394;SDS011;5753;54.402;10.220;2022-11-15T08:06:09;34.22;;;22.10;;
11394;SDS011;5753;54.402;10.220;2022-11-15T08:08:35;39.60;;;22.48;;
11394;SDS011;5753;54.402;10.220;2022-11-15T08:11:01;38.15;;;23.90;;
11394;SDS011;5753;54.402;10.220;2022-11-15T08:13:28;33.50;;;21.50;;
11394;SDS011;5753;54.402;10.220;2022-11-15T08:16:04;34.92;;;23.20;;
11394;SDS011;5753;54.402;10.220;2022-11-15T08:18:30;32.92;;;22.20;;
11394;SDS011;5753;54.402;10.220;2022-11-15T08:21:00;33.72;;;23.40;;
11394;SDS011;5753;54.402;10.220;2022-11-15T08:23:27;33.30;;;21.00;;
11394;SDS011;5753;54.402;10.220;2022-11-15T08:25:58;36.67;;;18.88;;
11394;SDS011;5753;54.402;10.220;2022-11-15T08:28:28;29.98;;;17.13;;
11394;SDS011;5753;54.402;10.220;2022-11-15T08:30:54;34.42;;;21.35;;
11394;SDS011;5753;54.402;10.220;2022-11-15T08:33:20;32.95;;;20.52;;
11394;SDS011;5753;54.402;10.220;2022-11-15T08:35:46;33.72;;;20.23;;
11394;SDS011;5753;54.402;10.220;2022-11-15T08:38:13;32.63;;;21.15;;
11394;SDS011;5753;54.402;10.220;2022-11-15T08:40:39;36.38;;;21.25;;
11394;SDS011;5753;54.402;10.220;2022-11-15T08:43:06;34.33;;;22.00;;
11394;SDS011;5753;54.402;10.220;2022-11-15T08:45:33;30.38;;;22.38;;
11394;SDS011;5753;54.402;10.220;2022-11-15T08:48:01;29.88;;;18.45;;
11394;SDS011;5753;54.402;10.220;2022-11-15T08:50:28;32.00;;;21.10;;
11394;SDS011;5753;54.402;10.220;2022-11-15T08:52:54;27.38;;;18.48;;
11394;SDS011;5753;54.402;10.220;2022-11-15T08:55:20;36.10;;;19.88;;
11394;SDS011;5753;54.402;10.220;2022-11-15T08:57:46;29.65;;;21.25;;
11394;SDS011;5753;54.402;10.220;2022-11-15T09:00:12;35.60;;;22.58;;
11394;SDS011;5753;54.402;10.220;2022-11-15T09:02:39;28.48;;;19.48;;
11394;SDS011;5753;54.402;10.220;2022-11-15T09:05:05;28.40;;;20.42;;
11394;SDS011;5753;54.402;10.220;2022-11-15T09:07:32;29.67;;;17.13;;
11394;SDS011;5753;54.402;10.220;2022-11-15T09:09:58;33.15;;;19.40;;
11394;SDS011;5753;54.402;10.220;2022-11-15T09:12:25;39.65;;;20.73;;
11394;SDS011;5753;54.402;10.220;2022-11-15T09:14:51;23.48;;;17.92;;
11394;SDS011;5753;54.402;10.220;2022-11-15T09:17:17;28.17;;;17.50;;
11394;SDS011;5753;54.402;10.220;2022-11-15T09:19:43;23.58;;;18.38;;
11394;SDS011;5753;54.402;10.220;2022-11-15T09:22:09;24.92;;;14.30;;
11394;SDS011;5753;54.402;10.220;2022-11-15T09:24:35;31.25;;;21.02;;
11394;SDS011;5753;54.402;10.220;2022-11-15T09:27:02;29.45;;;16.67;;
11394;SDS011;5753;54.402;10.220;2022-11-15T09:29:28;31.48;;;19.73;;
11394;SDS011;5753;54.402;10.220;2022-11-15T09:31:54;24.08;;;17.90;;
11394;SDS011;5753;54.402;10.220;2022-11-15T09:34:20;28.55;;;18.55;;
11394;SDS011;5753;54.402;10.220;2022-11-15T09:36:46;32.53;;;16.60;;
11394;SDS011;5753;54.402;10.220;2022-11-15T09:39:12;24.58;;;18.25;;
11394;SDS011;5753;54.402;10.220;2022-11-15T09:41:50;25.13;;;17.52;;
11394;SDS011;5753;54.402;10.220;2022-11-15T09:47:20;24.58;;;18.50;;
11394;SDS011;5753;54.402;10.220;2022-11-15T09:50:10;23.50;;;14.40;;
11394;SDS011;5753;54.402;10.220;2022-11-15T09:52:39;27.25;;;15.77;;
11394;SDS011;5753;54.402;10.220;2022-11-15T09:55:10;26.05;;;15.65;;
11394;SDS011;5753;54.402;10.220;2022-11-15T10:00:29;23.73;;;17.55;;
11394;SDS011;5753;54.402;10.220;2022-11-15T10:03:47;24.88;;;18.38;;
11394;SDS011;5753;54.402;10.220;2022-11-15T10:06:00;23.05;;;18.27;;
11394;SDS011;5753;54.402;10.220;2022-11-15T10:11:27;24.88;;;16.33;;
11394;SDS011;5753;54.402;10.220;2022-11-15T10:14:04;20.65;;;17.20;;
11394;SDS011;5753;54.402;10.220;2022-11-15T10:19:39;26.65;;;16.45;;
11394;SDS011;5753;54.402;10.220;2022-11-15T10:22:27;25.02;;;16.85;;
11394;SDS011;5753;54.402;10.220;2022-11-15T10:27:39;20.60;;;15.23;;
11394;SDS011;5753;54.402;10.220;2022-11-15T10:30:14;18.33;;;15.00;;
11394;SDS011;5753;54.402;10.220;2022-11-15T10:32:42;18.98;;;14.60;;
11394;SDS011;5753;54.402;10.220;2022-11-15T10:38:06;28.13;;;16.73;;
11394;SDS011;5753;54.402;10.220;2022-11-15T10:40:35;23.90;;;16.20;;
11394;SDS011;5753;54.402;10.220;2022-11-15T10:45:35;25.55;;;16.25;;
11394;SDS011;5753;54.402;10.220;2022-11-15T10:50:42;23.27;;;17.70;;
11394;SDS011;5753;54.402;10.220;2022-11-15T10:56:00;23.17;;;15.65;;
11394;SDS011;5753;54.402;10.220;2022-11-15T11:03:44;21.20;;;15.13;;
11394;SDS011;5753;54.402;10.220;2022-11-15T11:06:30;26.85;;;19.80;;
11394;SDS011;5753;54.402;10.220;2022-11-15T11:09:33;23.23;;;17.25;;
11394;SDS011;5753;54.402;10.220;2022-11-15T11:12:05;18.35;;;16.40;;
11394;SDS011;5753;54.402;10.220;2022-11-15T11:14:36;21.73;;;16.63;;
11394;SDS011;5753;54.402;10.220;2022-11-15T11:22:38;23.33;;;15.13;;
11394;SDS011;5753;54.402;10.220;2022-11-15T11:33:54;21.33;;;15.80;;
11394;SDS011;5753;54.402;10.220;2022-11-15T11:36:43;19.23;;;13.07;;
11394;SDS011;5753;54.402;10.220;2022-11-15T11:47:36;16.33;;;14.10;;
11394;SDS011;5753;54.402;10.220;2022-11-15T11:50:17;20.85;;;16.10;;
11394;SDS011;5753;54.402;10.220;2022-11-15T11:52:59;19.48;;;13.73;;
11394;SDS011;5753;54.402;10.220;2022-11-15T11:58:13;19.92;;;13.52;;
11394;SDS011;5753;54.402;10.220;2022-11-15T12:06:53;28.10;;;14.40;;
11394;SDS011;5753;54.402;10.220;2022-11-15T12:09:32;21.33;;;12.85;;
11394;SDS011;5753;54.402;10.220;2022-11-15T12:14:51;20.55;;;13.15;;
11394;SDS011;5753;54.402;10.220;2022-11-15T12:19:51;23.27;;;14.43;;
11394;SDS011;5753;54.402;10.220;2022-11-15T12:22:23;23.85;;;14.15;;
11394;SDS011;5753;54.402;10.220;2022-11-15T12:25:16;27.30;;;17.67;;
11394;SDS011;5753;54.402;10.220;2022-11-15T12:27:53;19.08;;;13.82;;
11394;SDS011;5753;54.402;10.220;2022-11-15T12:30:52;23.70;;;13.20;;
11394;SDS011;5753;54.402;10.220;2022-11-15T12:33:36;19.35;;;12.73;;
11394;SDS011;5753;54.402;10.220;2022-11-15T12:36:51;14.77;;;12.68;;
11394;SDS011;5753;54.402;10.220;2022-11-15T12:39:04;23.27;;;15.40;;
11394;SDS011;5753;54.402;10.220;2022-11-15T12:41:38;20.48;;;13.07;;
11394;SDS011;5753;54.402;10.220;2022-11-15T12:44:12;14.90;;;13.05;;
11394;SDS011;5753;54.402;10.220;2022-11-15T12:49:50;17.57;;;12.67;;
11394;SDS011;5753;54.402;10.220;2022-11-15T12:52:17;17.65;;;13.15;;
11394;SDS011;5753;54.402;10.220;2022-11-15T13:00:00;21.75;;;13.45;;
11394;SDS011;5753;54.402;10.220;2022-11-15T13:02:51;15.15;;;13.23;;
11394;SDS011;5753;54.402;10.220;2022-11-15T13:08:08;16.23;;;11.27;;
11394;SDS011;5753;54.402;10.220;2022-11-15T13:10:54;21.60;;;13.82;;
11394;SDS011;5753;54.402;10.220;2022-11-15T13:13:41;17.95;;;12.70;;
11394;SDS011;5753;54.402;10.220;2022-11-15T13:16:09;16.63;;;14.02;;
11394;SDS011;5753;54.402;10.220;2022-11-15T13:18:37;19.42;;;13.80;;
11394;SDS011;5753;54.402;10.220;2022-11-15T13:21:16;16.88;;;11.35;;
11394;SDS011;5753;54.402;10.220;2022-11-15T13:24:03;20.48;;;14.70;;
11394;SDS011;5753;54.402;10.220;2022-11-15T13:26:35;13.68;;;10.88;;
11394;SDS011;5753;54.402;10.220;2022-11-15T13:29:04;24.33;;;14.45;;
11394;SDS011;5753;54.402;10.220;2022-11-15T13:31:42;18.90;;;13.38;;
11394;SDS011;5753;54.402;10.220;2022-11-15T13:34:16;20.98;;;11.20;;
11394;SDS011;5753;54.402;10.220;2022-11-15T13:36:42;21.90;;;12.70;;
11394;SDS011;5753;54.402;10.220;2022-11-15T13:39:28;18.70;;;11.13;;
11394;SDS011;5753;54.402;10.220;2022-11-15T13:41:56;21.45;;;13.73;;
11394;SDS011;5753;54.402;10.220;2022-11-15T13:44:30;13.43;;;12.10;;
11394;SDS011;5753;54.402;10.220;2022-11-15T13:47:14;18.08;;;14.13;;
11394;SDS011;5753;54.402;10.220;2022-11-15T13:49:43;18.75;;;11.68;;
11394;SDS011;5753;54.402;10.220;2022-11-15T13:52:11;16.60;;;11.20;;
11394;SDS011;5753;54.402;10.220;2022-11-15T13:54:52;21.50;;;13.75;;
11394;SDS011;5753;54.402;10.220;2022-11-15T14:00:34;17.02;;;11.90;;
11394;SDS011;5753;54.402;10.220;2022-11-15T14:08:28;17.52;;;10.68;;
11394;SDS011;5753;54.402;10.220;2022-11-15T14:11:14;19.20;;;13.60;;
11394;SDS011;5753;54.402;10.220;2022-11-15T14:13:57;15.85;;;11.20;;
11394;SDS011;5753;54.402;10.220;2022-11-15T14:16:37;15.38;;;11.27;;
11394;SDS011;5753;54.402;10.220;2022-11-15T14:19:33;13.15;;;11.40;;
11394;SDS011;5753;54.402;10.220;2022-11-15T14:22:11;13.27;;;9.68;;
11394;SDS011;5753;54.402;10.220;2022-11-15T14:24:43;16.45;;;11.18;;
11394;SDS011;5753;54.402;10.220;2022-11-15T14:29:44;23.17;;;12.60;;
11394;SDS011;5753;54.402;10.220;2022-11-15T14:32:37;17.85;;;12.98;;
11394;SDS011;5753;54.402;10.220;2022-11-15T14:35:16;14.70;;;11.27;;
11394;SDS011;5753;54.402;10.220;2022-11-15T14:37:44;15.98;;;12.30;;
11394;SDS011;5753;54.402;10.220;2022-11-15T14:40:15;27.67;;;12.23;;
11394;SDS011;5753;54.402;10.220;2022-11-15T14:42:46;17.65;;;13.57;;
11394;SDS011;5753;54.402;10.220;2022-11-15T14:45:17;14.93;;;10.98;;
11394;SDS011;5753;54.402;10.220;2022-11-15T14:47:46;14.98;;;10.35;;
11394;SDS011;5753;54.402;10.220;2022-11-15T14:50:16;14.07;;;12.15;;
11394;SDS011;5753;54.402;10.220;2022-11-15T14:52:44;17.25;;;10.23;;
11394;SDS011;5753;54.402;10.220;2022-11-15T14:57:48;20.17;;;13.15;;
11394;SDS011;5753;54.402;10.220;2022-11-15T15:00:15;21.80;;;15.35;;
11394;SDS011;5753;54.402;10.220;2022-11-15T15:02:42;12.73;;;10.27;;
11394;SDS011;5753;54.402;10.220;2022-11-15T15:05:21;20.42;;;13.75;;
11394;SDS011;5753;54.402;10.220;2022-11-15T15:07:49;27.52;;;16.55;;
11394;SDS011;5753;54.402;10.220;2022-11-15T15:10:18;17.85;;;13.07;;
11394;SDS011;5753;54.402;10.220;2022-11-15T15:12:44;19.98;;;13.60;;
11394;SDS011;5753;54.402;10.220;2022-11-15T15:15:14;20.33;;;13.68;;
11394;SDS011;5753;54.402;10.220;2022-11-15T15:17:43;20.93;;;15.27;;
11394;SDS011;5753;54.402;10.220;2022-11-15T15:20:09;22.83;;;15.77;;
11394;SDS011;5753;54.402;10.220;2022-11-15T15:22:35;24.67;;;15.88;;
11394;SDS011;5753;54.402;10.220;2022-11-15T15:25:02;22.95;;;14.38;;
11394;SDS011;5753;54.402;10.220;2022-11-15T15:27:40;24.30;;;16.10;;
11394;SDS011;5753;54.402;10.220;2022-11-15T15:30:07;18.02;;;13.55;;
11394;SDS011;5753;54.402;10.220;2022-11-15T15:32:33;20.80;;;13.10;;
11394;SDS011;5753;54.402;10.220;2022-11-15T15:34:59;21.73;;;15.43;;
11394;SDS011;5753;54.402;10.220;2022-11-15T15:37:25;18.58;;;16.10;;
11394;SDS011;5753;54.402;10.220;2022-11-15T15:39:52;19.90;;;14.43;;
11394;SDS011;5753;54.402;10.220;2022-11-15T15:42:20;22.88;;;15.65;;
11394;SDS011;5753;54.402;10.220;2022-11-15T15:44:48;18.75;;;13.13;;
11394;SDS011;5753;54.402;10.220;2022-11-15T15:47:16;22.30;;;15.52;;
11394;SDS011;5753;54.402;10.220;2022-11-15T15:49:44;18.67;;;14.20;;
11394;SDS011;5753;54.402;10.220;2022-11-15T15:52:10;21.63;;;14.95;;
11394;SDS011;5753;54.402;10.220;2022-11-15T15:54:36;22.90;;;15.05;;
11394;SDS011;5753;54.402;10.220;2022-11-15T15:57:03;26.42;;;17.05;;
11394;SDS011;5753;54.402;10.220;2022-11-15T15:59:30;20.80;;;15.88;;
11394;SDS011;5753;54.402;10.220;2022-11-15T16:01:56;24.23;;;14.35;;
11394;SDS011;5753;54.402;10.220;2022-11-15T16:04:23;25.83;;;17.08;;
11394;SDS011;5753;54.402;10.220;2022-11-15T16:06:50;28.23;;;16.73;;
11394;SDS011;5753;54.402;10.220;2022-11-15T16:09:19;25.45;;;18.98;;
11394;SDS011;5753;54.402;10.220;2022-11-15T16:12:05;27.02;;;16.13;;
11394;SDS011;5753;54.402;10.220;2022-11-15T16:14:32;25.58;;;16.98;;
11394;SDS011;5753;54.402;10.220;2022-11-15T16:16:58;25.58;;;20.75;;
11394;SDS011;5753;54.402;10.220;2022-11-15T16:19:24;26.60;;;20.88;;
11394;SDS011;5753;54.402;10.220;2022-11-15T16:21:50;33.03;;;21.75;;
11394;SDS011;5753;54.402;10.220;2022-11-15T16:24:19;29.98;;;21.50;;
11394;SDS011;5753;54.402;10.220;2022-11-15T16:26:46;25.75;;;18.25;;
11394;SDS011;5753;54.402;10.220;2022-11-15T16:29:13;26.80;;;22.40;;
11394;SDS011;5753;54.402;10.220;2022-11-15T16:31:39;31.65;;;19.83;;
11394;SDS011;5753;54.402;10.220;2022-11-15T16:34:05;22.23;;;14.27;;
11394;SDS011;5753;54.402;10.220;2022-11-15T16:36:35;31.55;;;19.17;;
11394;SDS011;5753;54.402;10.220;2022-11-15T16:39:01;26.92;;;20.98;;
11394;SDS011;5753;54.402;10.220;2022-11-15T16:41:31;30.63;;;18.92;;
11394;SDS011;5753;54.402;10.220;2022-11-15T16:43:57;28.75;;;19.08;;
11394;SDS011;5753;54.402;10.220;2022-11-15T16:46:24;25.33;;;17.50;;